createdAt,value
2019-02-22T00:03:24.305Z,27.63
2019-02-22T00:08:29.646Z,21.40
2019-02-22T00:13:34.979Z,20.10
2019-02-22T00:18:41.386Z,17.07
2019-02-22T00:23:46.712Z,26.70
2019-02-22T00:28:52.031Z,28.37
2019-02-22T00:33:57.376Z,18.33
2019-02-22T00:39:02.894Z,23.30
2019-02-22T00:44:10.129Z,24.40
2019-02-22T00:49:15.432Z,17.77
2019-02-22T00:54:20.775Z,34.70
2019-02-22T00:59:26.140Z,18.03
2019-02-22T01:04:31.481Z,34.33
2019-02-22T01:09:36.816Z,36.10
2019-02-22T01:14:42.148Z,33.67
2019-02-22T01:19:47.460Z,28.07
2019-02-22T01:24:52.772Z,35.10
2019-02-22T01:29:58.074Z,29.70
2019-02-22T01:35:03.439Z,32.37
2019-02-22T01:40:08.868Z,33.40
2019-02-22T01:45:14.184Z,34.03
2019-02-22T01:50:24.475Z,34.40
2019-02-22T01:55:29.746Z,32.90
2019-02-22T02:00:35.056Z,34.03
2019-02-22T02:05:40.469Z,38.03
2019-02-22T02:10:53.844Z,31.57
2019-02-22T02:15:52.813Z,31.33
2019-02-22T02:20:58.116Z,34.90
2019-02-22T02:26:03.452Z,32.73
2019-02-22T02:31:08.759Z,34.37
2019-02-22T02:36:14.091Z,33.13
2019-02-22T02:41:19.431Z,38.53
2019-02-22T02:46:24.788Z,39.67
2019-02-22T02:51:30.109Z,39.37
2019-02-22T02:56:35.442Z,41.73
2019-02-22T03:01:40.770Z,43.00
2019-02-22T03:07:05.026Z,38.57
2019-02-22T03:12:10.419Z,41.63
2019-02-22T03:17:15.835Z,44.27
2019-02-22T03:22:21.146Z,50.67
2019-02-22T03:27:26.485Z,47.20
2019-02-22T03:32:31.818Z,45.93
2019-02-22T03:37:37.132Z,42.00
2019-02-22T03:42:55.323Z,45.33
2019-02-22T03:48:00.647Z,47.30
2019-02-22T03:53:16.131Z,49.67
2019-02-22T03:58:21.591Z,46.60
2019-02-22T04:03:26.919Z,41.87
2019-02-22T04:08:32.247Z,42.37
2019-02-22T04:13:37.646Z,30.90
2019-02-22T04:18:42.972Z,48.87
2019-02-22T04:23:48.329Z,45.53
2019-02-22T04:28:54.981Z,34.83
2019-02-22T04:34:00.311Z,32.80
2019-02-22T04:39:06.463Z,46.37
2019-02-22T04:44:11.913Z,47.80
2019-02-22T04:49:17.262Z,38.83
2019-02-22T04:54:22.580Z,47.83
2019-02-22T04:59:27.915Z,48.33
2019-02-22T05:04:34.664Z,49.63
2019-02-22T05:09:39.987Z,48.60
2019-02-22T05:14:45.351Z,50.47
2019-02-22T05:19:50.661Z,47.67
2019-02-22T05:24:55.988Z,50.37
2019-02-22T05:30:01.320Z,54.47
2019-02-22T05:35:06.856Z,51.60
2019-02-22T05:40:12.187Z,50.17
2019-02-22T05:45:17.533Z,53.53
2019-02-22T05:50:22.947Z,54.90
2019-02-22T05:55:28.369Z,51.07
2019-02-22T06:00:33.773Z,42.83
2019-02-22T06:05:39.152Z,51.87
2019-02-22T06:10:44.479Z,53.20
2019-02-22T06:15:49.881Z,50.97
2019-02-22T06:20:55.253Z,51.97
2019-02-22T06:26:00.577Z,53.07
2019-02-22T06:31:05.915Z,55.00
2019-02-22T06:36:11.251Z,49.93
2019-02-22T06:41:16.575Z,51.43
2019-02-22T06:46:21.917Z,50.40
2019-02-22T06:51:27.231Z,50.27
2019-02-22T06:56:32.591Z,45.53
2019-02-22T07:01:37.949Z,47.23
2019-02-22T07:06:43.304Z,48.77
2019-02-22T07:11:52.946Z,44.87
2019-02-22T07:16:58.275Z,46.03
2019-02-22T07:22:03.623Z,48.47
2019-02-22T07:27:08.956Z,45.17
2019-02-22T07:32:14.296Z,44.67
2019-02-22T07:37:19.642Z,43.97
2019-02-22T07:42:24.960Z,44.37
2019-02-22T07:47:30.304Z,42.90
2019-02-22T07:52:35.658Z,44.63
2019-02-22T07:57:42.132Z,42.20
2019-02-22T08:02:47.572Z,44.00
2019-02-22T08:07:53.015Z,39.23
2019-02-22T08:12:58.344Z,37.10
2019-02-22T08:18:03.655Z,35.20
2019-02-22T08:23:09.051Z,42.87
2019-02-22T08:28:15.523Z,34.03
2019-02-22T08:33:20.860Z,40.27
2019-02-22T08:38:26.238Z,37.37
2019-02-22T08:43:32.379Z,32.60
2019-02-22T08:48:37.750Z,29.63
2019-02-22T08:53:43.595Z,31.10
2019-02-22T08:58:49.056Z,28.83
2019-02-22T09:03:54.538Z,31.57
2019-02-22T09:08:59.892Z,27.90
2019-02-22T09:14:06.829Z,26.67
2019-02-22T09:19:13.035Z,25.40
2019-02-22T09:24:18.380Z,28.87
2019-02-22T09:29:23.723Z,27.00
2019-02-22T09:34:29.060Z,23.50
2019-02-22T09:39:35.467Z,28.27
2019-02-22T09:44:40.836Z,19.67
2019-02-22T09:49:46.163Z,20.57
2019-02-22T09:54:51.495Z,18.37
2019-02-22T09:59:56.857Z,20.20
2019-02-22T10:05:02.177Z,18.80
2019-02-22T10:10:08.884Z,17.60
2019-02-22T10:15:14.201Z,16.10
2019-02-22T10:20:19.795Z,16.00
2019-02-22T10:25:25.197Z,15.30
2019-02-22T10:30:30.519Z,12.77
2019-02-22T10:35:35.842Z,14.97
2019-02-22T10:40:41.187Z,12.90
2019-02-22T10:45:46.539Z,13.00
2019-02-22T10:50:51.880Z,10.57
2019-02-22T10:55:57.238Z,11.53
2019-02-22T11:01:02.634Z,9.07
2019-02-22T11:06:09.025Z,9.30
2019-02-22T11:11:15.836Z,10.93
2019-02-22T11:16:21.171Z,9.63
2019-02-22T11:21:26.496Z,6.53
2019-02-22T11:26:31.817Z,5.40
2019-02-22T11:31:37.152Z,6.83
2019-02-22T11:36:42.474Z,5.10
2019-02-22T11:41:47.804Z,4.13
2019-02-22T11:46:53.139Z,3.70
2019-02-22T11:51:58.477Z,3.60
2019-02-22T11:57:04.931Z,2.20
2019-02-22T12:02:10.260Z,3.93
2019-02-22T12:07:15.592Z,3.30
2019-02-22T12:12:20.996Z,5.77
2019-02-22T12:17:26.399Z,3.63
2019-02-22T12:22:31.751Z,4.03
2019-02-22T12:27:37.083Z,1.90
2019-02-22T12:32:42.424Z,3.03
2019-02-22T12:37:47.739Z,4.20
2019-02-22T12:42:53.124Z,3.87
2019-02-22T12:47:58.455Z,4.57
2019-02-22T12:53:03.835Z,4.67
2019-02-22T12:58:09.267Z,3.93
2019-02-22T13:03:14.602Z,6.50
2019-02-22T13:08:20.135Z,3.10
2019-02-22T13:13:25.519Z,3.70
2019-02-22T13:18:30.862Z,4.30
2019-02-22T13:23:36.478Z,3.93
2019-02-22T13:28:42.196Z,3.07
2019-02-22T13:33:47.554Z,2.33
2019-02-22T13:38:52.944Z,1.97
2019-02-22T13:43:58.342Z,1.50
2019-02-22T13:49:03.767Z,1.10
2019-02-22T13:54:09.128Z,3.03
2019-02-22T13:59:14.657Z,2.03
2019-02-22T14:04:20.068Z,2.47
2019-02-22T14:09:25.624Z,2.33
2019-02-22T14:14:30.960Z,3.07
2019-02-22T14:19:36.864Z,2.53
2019-02-22T14:24:42.191Z,1.73
2019-02-22T14:29:47.663Z,2.70
2019-02-22T14:34:53.020Z,2.10
2019-02-22T14:40:03.453Z,3.43
2019-02-22T14:45:05.897Z,2.27
2019-02-22T14:50:13.293Z,2.00
2019-02-22T14:55:18.779Z,2.20
2019-02-22T15:00:24.036Z,2.10
2019-02-22T15:05:29.477Z,1.40
2019-02-22T15:10:35.125Z,1.33
2019-02-22T15:16:01.803Z,1.60
2019-02-22T15:21:05.007Z,1.00
2019-02-22T15:26:10.340Z,1.30
2019-02-22T15:31:15.647Z,1.87
2019-02-22T15:36:20.971Z,2.00
2019-02-22T15:41:26.316Z,2.00
2019-02-22T15:46:32.830Z,1.30
2019-02-22T15:51:38.243Z,1.03
2019-02-22T15:56:43.660Z,1.20
2019-02-22T16:01:55.159Z,1.37
2019-02-22T16:06:56.059Z,1.23
2019-02-22T16:12:01.378Z,3.60
2019-02-22T16:17:06.787Z,3.10
2019-02-22T16:22:12.268Z,1.90
2019-02-22T16:27:17.751Z,1.50
2019-02-22T16:32:23.505Z,2.17
2019-02-22T16:37:28.818Z,2.10
2019-02-22T16:42:34.139Z,1.93
2019-02-22T16:47:40.541Z,2.50
2019-02-22T16:52:46.180Z,2.77
2019-02-22T16:57:53.011Z,3.90
2019-02-22T17:02:59.744Z,4.20
2019-02-22T17:08:14.255Z,4.53
2019-02-22T17:13:15.749Z,4.33
2019-02-22T17:18:21.322Z,4.57
2019-02-22T17:23:27.272Z,7.73
2019-02-22T17:28:32.983Z,5.77
2019-02-22T17:33:38.482Z,6.63
2019-02-22T17:38:44.023Z,8.53
2019-02-22T17:43:49.532Z,6.60
2019-02-22T17:48:55.051Z,5.73
2019-02-22T17:54:00.540Z,5.80
2019-02-22T17:59:05.960Z,7.00
2019-02-22T18:04:11.720Z,6.47
2019-02-22T18:09:17.089Z,7.27
2019-02-22T18:14:23.182Z,7.60
2019-02-22T18:19:29.124Z,6.87
2019-02-22T18:24:36.113Z,6.40
2019-02-22T18:29:41.524Z,7.17
2019-02-22T18:34:47.059Z,9.10
2019-02-22T18:39:53.555Z,7.87
2019-02-22T18:44:58.855Z,8.73
2019-02-22T18:50:04.370Z,11.93
2019-02-22T18:55:09.743Z,6.30
2019-02-22T19:00:17.240Z,7.17
2019-02-22T19:05:22.680Z,7.00
2019-02-22T19:10:28.062Z,5.30
2019-02-22T19:15:33.496Z,5.90
2019-02-22T19:20:38.899Z,6.27
2019-02-22T19:25:45.375Z,7.03
2019-02-22T19:30:50.746Z,6.37
2019-02-22T19:35:56.201Z,7.53
2019-02-22T19:41:01.584Z,6.73
2019-02-22T19:46:06.994Z,9.80
2019-02-22T19:51:12.528Z,6.80
2019-02-22T19:56:18.006Z,7.17
2019-02-22T20:01:23.522Z,8.37
2019-02-22T20:06:28.944Z,7.60
2019-02-22T20:11:34.520Z,7.77
2019-02-22T20:16:39.894Z,9.80
2019-02-22T20:21:45.236Z,9.50
2019-02-22T20:26:51.512Z,8.97
2019-02-22T20:31:56.878Z,9.40
2019-02-22T20:37:02.257Z,8.67
2019-02-22T20:42:08.716Z,7.93
2019-02-22T20:47:15.136Z,10.33
2019-02-22T20:52:20.667Z,9.90
2019-02-22T20:57:26.168Z,10.97
2019-02-22T21:02:31.904Z,11.57
2019-02-22T21:07:37.483Z,11.43
2019-02-22T21:12:42.824Z,11.87
2019-02-22T21:17:48.412Z,9.97
2019-02-22T21:22:53.772Z,11.53
2019-02-22T21:27:59.165Z,12.60
2019-02-22T21:33:04.569Z,10.90
2019-02-22T21:38:09.968Z,12.97
2019-02-22T21:43:15.424Z,12.80
2019-02-22T21:48:27.475Z,12.70
2019-02-22T21:53:27.912Z,13.83
2019-02-22T21:58:33.422Z,14.83
2019-02-22T22:03:39.809Z,17.17
2019-02-22T22:08:45.223Z,16.67
2019-02-22T22:13:52.082Z,13.43
2019-02-22T22:18:57.508Z,12.60
2019-02-22T22:24:02.927Z,10.90
2019-02-22T22:29:08.256Z,12.67
2019-02-22T22:34:13.579Z,13.53
2019-02-22T22:39:18.933Z,15.40
2019-02-22T22:44:24.330Z,14.47
2019-02-22T22:49:29.987Z,12.23
2019-02-22T22:54:35.339Z,15.23
2019-02-22T22:59:40.764Z,13.10
2019-02-22T23:04:46.413Z,17.13
2019-02-22T23:09:51.835Z,12.60
2019-02-22T23:14:57.424Z,16.27
2019-02-22T23:20:02.913Z,12.80
2019-02-22T23:25:10.272Z,12.87
2019-02-22T23:30:15.706Z,11.43
2019-02-22T23:35:21.775Z,12.53
2019-02-22T23:40:27.195Z,12.40
2019-02-22T23:45:32.509Z,13.40
2019-02-22T23:50:37.959Z,11.17
2019-02-22T23:55:43.301Z,13.07
